| time (UTC) | temp C | wind direction | speed KPH | gust KPH | rain 1hr cm | rain 24hr cm | rain mn cm | humidity % | barometer mb |
| 20260902063035 | 13 | 0 | 0.0 | 3.2 | 0.00 | 0.00 | 0.00 | 90 | 1021.5 |
| 20260902061554 | 13 | 315 | 1.6 | 6.4 | 0.00 | 0.00 | 0.00 | 91 | 1021.5 |
| 20260902060040 | 13 | 279 | 1.6 | 4.8 | 0.00 | 0.00 | 0.00 | 91 | 1021.5 |
| 20260902054533 | 13 | 0 | 0.0 | 3.2 | 0.00 | 0.00 | 0.00 | 91 | 1021.4 |
| 20260902053038 | 14 | 5 | 3.2 | 6.4 | 0.00 | 0.00 | 0.00 | 92 | 1021.4 |
| 20260902051538 | 13 | 288 | 1.6 | 4.8 | 0.00 | 0.00 | 0.00 | 93 | 1021.2 |
| 20260902050037 | 13 | 32 | 0.0 | 4.8 | 0.00 | 0.00 | 0.00 | 92 | 1021.1 |
| 20260902044538 | 13 | 0 | 1.6 | 3.2 | 0.00 | 0.00 | 0.00 | 93 | 1020.9 |
| 20260902043038 | 13 | 0 | 0.0 | 3.2 | 0.00 | 0.00 | 0.00 | 92 | 1020.7 |
| 20260902041537 | 13 | 322 | 1.6 | 4.8 | 0.00 | 0.00 | 0.00 | 92 | 1020.5 |
| 20260902040038 | 13 | 0 | 0.0 | 3.2 | 0.00 | 0.00 | 0.00 | 92 | 1020.4 |
| 20260902034537 | 13 | 323 | 0.0 | 4.8 | 0.00 | 0.00 | 0.00 | 92 | 1020.4 |
| 20260902033036 | 13 | 0 | 0.0 | 1.6 | 0.00 | 0.00 | 0.00 | 91 | 1020.4 |
| 20260902031621 | 13 | 0 | 0.0 | 4.8 | 0.00 | 0.00 | 0.00 | 91 | 1020.2 |
| 20260902030033 | 13 | 0 | 0.0 | 0.0 | 0.00 | 0.00 | 0.00 | 90 | 1020.1 |
| 20260902024539 | 13 | 0 | 0.0 | 0.0 | 0.00 | 0.00 | 0.00 | 89 | 1020.1 |
| 20260902023041 | 14 | 180 | 0.0 | 3.2 | 0.00 | 0.00 | 0.00 | 88 | 1020.1 |
| 20260902021533 | 14 | 180 | 0.0 | 3.2 | 0.00 | 0.00 | 0.00 | 88 | 1020.1 |
| 20260902020038 | 14 | 180 | 1.6 | 3.2 | 0.00 | 0.00 | 0.00 | 86 | 1020.0 |
| 20260902014536 | 15 | 0 | 0.0 | 1.6 | 0.00 | 0.00 | 0.00 | 85 | 1020.0 |
| 20260902013035 | 15 | 180 | 0.0 | 1.6 | 0.00 | 0.00 | 0.00 | 85 | 1020.0 |
| 20260902011536 | 15 | 0 | 0.0 | 0.0 | 0.00 | 0.00 | 0.00 | 84 | 1019.7 |
| 20260902010034 | 15 | 180 | 1.6 | 3.2 | 0.00 | 0.00 | 0.00 | 83 | 1019.8 |
| 20260902004537 | 15 | 0 | 0.0 | 0.0 | 0.00 | 0.00 | 0.00 | 81 | 1019.8 |
| 20260902003040 | 15 | 0 | 0.0 | 3.2 | 0.00 | 0.00 | 0.00 | 81 | 1019.8 |
| 20260902001551 | 15 | 180 | 0.0 | 1.6 | 0.00 | 0.00 | 0.00 | 80 | 1019.6 |
| 20260902000037 | 16 | 0 | 0.0 | 4.8 | 0.00 | 0.00 | 0.00 | 79 | 1019.7 |
| 20260901234533 | 16 | 0 | 0.0 | 3.2 | 0.00 | 0.00 | 0.00 | 78 | 1019.7 |
| 20260901233035 | 16 | 180 | 6.4 | 9.7 | 0.00 | 0.00 | 0.00 | 78 | 1019.6 |
| 20260901231535 | 16 | 226 | 4.8 | 8.0 | 0.00 | 0.00 | 0.00 | 78 | 1019.3 |
| 20260901230033 | 17 | 233 | 3.2 | 9.7 | 0.00 | 0.00 | 0.00 | 77 | 1019.1 |
| 20260901224536 | 17 | 177 | 4.8 | 14.5 | 0.00 | 0.00 | 0.00 | 76 | 1018.9 |
| 20260901223041 | 17 | 178 | 11.3 | 16.1 | 0.00 | 0.00 | 0.00 | 75 | 1019.1 |
| 20260901221545 | 17 | 161 | 11.3 | 19.3 | 0.00 | 0.00 | 0.00 | 72 | 1019.1 |
| 20260901220039 | 18 | 160 | 11.3 | 19.3 | 0.00 | 0.00 | 0.00 | 72 | 1019.0 |
| 20260901214533 | 18 | 191 | 11.3 | 20.9 | 0.00 | 0.00 | 0.00 | 72 | 1018.8 |
| 20260901213032 | 18 | 159 | 11.3 | 22.5 | 0.00 | 0.00 | 0.00 | 73 | 1018.6 |
| 20260901211533 | 18 | 221 | 12.9 | 22.5 | 0.00 | 0.00 | 0.00 | 71 | 1018.6 |
| 20260901210035 | 19 | 186 | 12.9 | 22.5 | 0.00 | 0.00 | 0.00 | 70 | 1018.3 |
| 20260901204536 | 19 | 204 | 12.9 | 24.1 | 0.00 | 0.00 | 0.00 | 69 | 1018.2 |
| 20260901203036 | 19 | 160 | 14.5 | 27.4 | 0.00 | 0.00 | 0.00 | 68 | 1018.3 |
| 20260901201536 | 20 | 177 | 11.3 | 20.9 | 0.00 | 0.00 | 0.00 | 68 | 1018.2 |
| 20260901200039 | 20 | 201 | 12.9 | 27.4 | 0.00 | 0.00 | 0.00 | 66 | 1018.3 |
| 20260901194536 | 20 | 194 | 12.9 | 24.1 | 0.00 | 0.00 | 0.00 | 66 | 1018.3 |
| 20260901193034 | 19 | 174 | 17.7 | 29.0 | 0.00 | 0.00 | 0.00 | 67 | 1018.2 |
| 20260901191551 | 20 | 165 | 16.1 | 27.4 | 0.00 | 0.00 | 0.00 | 65 | 1018.2 |
| 20260901190035 | 20 | 167 | 16.1 | 22.5 | 0.00 | 0.00 | 0.00 | 64 | 1018.2 |
| 20260901184544 | 20 | 199 | 14.5 | 24.1 | 0.00 | 0.00 | 0.00 | 65 | 1018.2 |
| 20260901183045 | 20 | 170 | 14.5 | 25.7 | 0.00 | 0.00 | 0.00 | 66 | 1018.1 |
| 20260901181535 | 20 | 212 | 12.9 | 22.5 | 0.00 | 0.00 | 0.00 | 67 | 1018.0 |
| 20260901180034 | 20 | 171 | 14.5 | 25.7 | 0.00 | 0.00 | 0.00 | 67 | 1018.0 |
| 20260901174534 | 20 | 161 | 14.5 | 30.6 | 0.00 | 0.00 | 0.00 | 67 | 1018.0 |
| 20260901173045 | 20 | 183 | 16.1 | 27.4 | 0.00 | 0.00 | 0.00 | 67 | 1018.1 |
| 20260901171533 | 20 | 179 | 12.9 | 20.9 | 0.00 | 0.00 | 0.00 | 71 | 1018.0 |
| 20260901170035 | 20 | 142 | 11.3 | 24.1 | 0.00 | 0.00 | 0.00 | 72 | 1018.0 |
| 20260901164543 | 19 | 188 | 9.7 | 17.7 | 0.00 | 0.00 | 0.00 | 74 | 1018.1 |
| 20260901163035 | 19 | 190 | 11.3 | 19.3 | 0.00 | 0.00 | 0.00 | 76 | 1018.0 |
| 20260901161549 | 18 | 153 | 14.5 | 17.7 | 0.00 | 0.00 | 0.00 | 80 | 1018.3 |
| 20260901160034 | 19 | 36 | 3.2 | 4.8 | 0.00 | 0.00 | 0.00 | 75 | 1018.3 |
| 20260901154550 | 18 | 0 | 0.0 | 3.2 | 0.00 | 0.00 | 0.00 | 77 | 1018.2 |
| 20260901153041 | 18 | 36 | 1.6 | 3.2 | 0.00 | 0.00 | 0.00 | 80 | 1018.3 |
| 20260901151536 | 17 | 36 | 1.6 | 6.4 | 0.00 | 0.00 | 0.00 | 80 | 1018.5 |
| 20260901150041 | 17 | 59 | 1.6 | 3.2 | 0.00 | 0.00 | 0.00 | 78 | 1018.5 |
| 20260901144541 | 17 | 59 | 3.2 | 4.8 | 0.00 | 0.00 | 0.00 | 79 | 1018.5 |
| 20260901143042 | 17 | 0 | 0.0 | 4.8 | 0.00 | 0.00 | 0.00 | 78 | 1018.6 |
| 20260901141545 | 17 | 101 | 4.8 | 9.7 | 0.00 | 0.00 | 0.00 | 78 | 1018.5 |
| 20260901140037 | 17 | 58 | 3.2 | 4.8 | 0.00 | 0.00 | 0.00 | 79 | 1018.7 |
| 20260901134534 | 17 | 0 | 0.0 | 0.0 | 0.00 | 0.00 | 0.00 | 76 | 1018.5 |
| 20260901133035 | 17 | 0 | 0.0 | 0.0 | 0.00 | 0.00 | 0.00 | 78 | 1018.3 |
| 20260901131537 | 16 | 0 | 0.0 | 0.0 | 0.00 | 0.00 | 0.00 | 80 | 1018.3 |
| 20260901130036 | 16 | 0 | 0.0 | 0.0 | 0.00 | 0.00 | 0.00 | 80 | 1018.2 |
| 20260901124540 | 16 | 0 | 0.0 | 0.0 | 0.00 | 0.00 | 0.00 | 82 | 1018.4 |
| 20260901123035 | 16 | 0 | 0.0 | 0.0 | 0.00 | 0.00 | 0.00 | 84 | 1018.2 |
| 20260901121537 | 15 | 0 | 0.0 | 4.8 | 0.00 | 0.00 | 0.00 | 87 | 1018.4 |
| 20260901120038 | 15 | 58 | 3.2 | 6.4 | 0.00 | 0.00 | 0.00 | 88 | 1018.2 |
| 20260901114541 | 14 | 70 | 4.8 | 8.0 | 0.00 | 0.00 | 0.00 | 89 | 1018.0 |
| 20260901113036 | 13 | 71 | 4.8 | 8.0 | 0.00 | 0.00 | 0.00 | 90 | 1017.8 |
| 20260901111538 | 13 | 65 | 4.8 | 8.0 | 0.00 | 0.00 | 0.00 | 90 | 1017.8 |
| 20260901110038 | 13 | 29 | 6.4 | 9.7 | 0.00 | 0.00 | 0.00 | 90 | 1017.8 |
| 20260901104536 | 13 | 273 | 3.2 | 4.8 | 0.00 | 0.00 | 0.00 | 92 | 1017.5 |
| 20260901103036 | 12 | 273 | 0.0 | 4.8 | 0.00 | 0.00 | 0.00 | 93 | 1017.4 |
| 20260901101533 | 12 | 273 | 1.6 | 3.2 | 0.00 | 0.00 | 0.00 | 93 | 1017.3 |
| 20260901100036 | 12 | 0 | 0.0 | 1.6 | 0.00 | 0.00 | 0.00 | 93 | 1017.4 |
| 20260901094540 | 12 | 273 | 1.6 | 3.2 | 0.00 | 0.00 | 0.00 | 92 | 1017.4 |
| 20260901093033 | 12 | 0 | 0.0 | 0.0 | 0.00 | 0.00 | 0.00 | 93 | 1017.3 |
| 20260901091538 | 12 | 0 | 0.0 | 3.2 | 0.00 | 0.00 | 0.00 | 92 | 1017.4 |
| 20260901090035 | 12 | 273 | 0.0 | 4.8 | 0.00 | 0.00 | 0.00 | 92 | 1017.5 |
| 20260901084542 | 12 | 273 | 1.6 | 4.8 | 0.00 | 0.00 | 0.00 | 92 | 1017.4 |
| 20260901083037 | 12 | 0 | 0.0 | 3.2 | 0.00 | 0.00 | 0.00 | 92 | 1017.6 |
| 20260901081536 | 12 | 273 | 1.6 | 3.2 | 0.00 | 0.00 | 0.00 | 91 | 1017.5 |
| 20260901080034 | 12 | 273 | 0.0 | 3.2 | 0.00 | 0.00 | 0.00 | 91 | 1017.6 |
| 20260901074539 | 12 | 273 | 0.0 | 3.2 | 0.00 | 0.00 | 0.00 | 90 | 1017.6 |
| 20260901073033 | 12 | 273 | 3.2 | 4.8 | 0.00 | 0.00 | 0.00 | 90 | 1017.5 |
| 20260901071537 | 12 | 0 | 0.0 | 4.8 | 0.00 | 0.00 | 0.00 | 89 | 1017.6 |
| 20260901070037 | 12 | 0 | 0.0 | 4.8 | 0.00 | 0.00 | 0.00 | 88 | 1017.6 |
| 20260901064536 | 12 | 0 | 0.0 | 8.0 | 0.00 | 0.00 | 0.00 | 88 | 1017.7 |